createdAt,value
2017-12-30T00:01:51.079Z,14.40
2017-12-30T00:04:18.647Z,15.60
2017-12-30T00:06:46.189Z,14.47
2017-12-30T00:09:13.784Z,15.67
2017-12-30T00:11:41.332Z,15.50
2017-12-30T00:14:08.878Z,14.23
2017-12-30T00:16:36.485Z,14.47
2017-12-30T00:19:04.035Z,15.20
2017-12-30T00:21:31.592Z,15.60
2017-12-30T00:23:59.189Z,12.40
2017-12-30T00:26:26.751Z,14.90
2017-12-30T00:28:54.311Z,15.00
2017-12-30T00:31:21.935Z,13.53
2017-12-30T00:33:49.648Z,13.60
2017-12-30T00:36:17.223Z,13.27
2017-12-30T00:38:44.808Z,13.20
2017-12-30T00:41:12.360Z,15.33
2017-12-30T00:43:39.922Z,12.50
2017-12-30T00:46:07.594Z,12.80
2017-12-30T00:48:35.163Z,12.77
2017-12-30T00:51:02.728Z,15.40
2017-12-30T00:53:30.302Z,14.47
2017-12-30T00:55:57.843Z,15.20
2017-12-30T00:58:25.398Z,14.77
2017-12-30T01:00:52.997Z,13.77
2017-12-30T01:03:20.546Z,12.70
2017-12-30T01:05:48.094Z,14.63
2017-12-30T01:08:15.683Z,16.23
2017-12-30T01:10:43.253Z,14.37
2017-12-30T01:13:10.827Z,14.37
2017-12-30T01:15:38.416Z,16.20
2017-12-30T01:18:06.001Z,17.70
2017-12-30T01:20:33.576Z,17.87
2017-12-30T01:23:01.189Z,14.50
2017-12-30T01:25:28.755Z,16.27
2017-12-30T01:27:56.329Z,18.53
2017-12-30T01:30:23.944Z,16.20
2017-12-30T01:32:51.518Z,18.40
2017-12-30T01:35:19.098Z,16.90
2017-12-30T01:37:46.707Z,16.30
2017-12-30T01:40:14.290Z,15.57
2017-12-30T01:42:41.904Z,16.53
2017-12-30T01:45:09.499Z,13.80
2017-12-30T01:47:37.075Z,14.60
2017-12-30T01:50:04.667Z,13.47
2017-12-30T01:52:32.321Z,12.97
2017-12-30T01:54:59.884Z,12.90
2017-12-30T01:57:27.453Z,12.83
2017-12-30T01:59:55.226Z,13.93
2017-12-30T02:02:22.791Z,13.40
2017-12-30T02:04:50.350Z,13.30
2017-12-30T02:07:17.960Z,15.00
2017-12-30T02:09:45.547Z,14.47
2017-12-30T02:12:14.029Z,14.70
2017-12-30T02:14:41.657Z,16.17
2017-12-30T02:17:09.227Z,14.67
2017-12-30T02:19:36.805Z,14.40
2017-12-30T02:22:04.399Z,13.70
2017-12-30T02:24:31.984Z,15.40
2017-12-30T02:26:59.551Z,15.67
2017-12-30T02:29:27.202Z,15.13
2017-12-30T02:31:54.775Z,14.97
2017-12-30T02:34:22.361Z,14.23
2017-12-30T02:36:49.966Z,14.63
2017-12-30T02:39:17.525Z,13.40
2017-12-30T02:41:45.106Z,14.27
2017-12-30T02:44:12.738Z,15.87
2017-12-30T02:46:40.336Z,13.53
2017-12-30T02:49:07.939Z,13.73
2017-12-30T02:51:35.555Z,13.50
2017-12-30T02:54:03.120Z,12.67
2017-12-30T02:56:30.712Z,13.50
2017-12-30T02:58:58.316Z,13.30
2017-12-30T03:01:25.876Z,15.17
2017-12-30T03:03:53.446Z,13.53
2017-12-30T03:06:21.049Z,15.20
2017-12-30T03:08:48.744Z,14.50
2017-12-30T03:11:16.311Z,13.47
2017-12-30T03:13:43.925Z,12.90
2017-12-30T03:16:11.497Z,13.20
2017-12-30T03:18:39.087Z,14.30
2017-12-30T03:21:06.701Z,14.17
2017-12-30T03:23:34.256Z,14.13
2017-12-30T03:26:01.816Z,13.77
2017-12-30T03:28:29.430Z,14.50
2017-12-30T03:30:56.988Z,13.07
2017-12-30T03:33:25.080Z,15.10
2017-12-30T03:35:52.687Z,13.37
2017-12-30T03:38:20.266Z,11.93
2017-12-30T03:40:47.831Z,15.00
2017-12-30T03:43:15.448Z,19.00
2017-12-30T03:45:43.023Z,15.03
2017-12-30T03:48:10.587Z,13.70
2017-12-30T03:50:38.201Z,14.43
2017-12-30T03:53:05.769Z,12.97
2017-12-30T03:55:33.335Z,15.80
2017-12-30T03:58:00.941Z,14.20
2017-12-30T04:00:28.512Z,15.27
2017-12-30T04:02:56.079Z,15.03
2017-12-30T04:05:23.684Z,15.60
2017-12-30T04:07:51.256Z,15.10
2017-12-30T04:10:18.824Z,15.77
2017-12-30T04:12:46.437Z,13.93
2017-12-30T04:15:13.990Z,15.77
2017-12-30T04:17:41.562Z,11.60
2017-12-30T04:20:09.164Z,13.93
2017-12-30T04:22:36.741Z,14.00
2017-12-30T04:25:04.322Z,14.00
2017-12-30T04:27:31.927Z,12.63
2017-12-30T04:29:59.502Z,13.47
2017-12-30T04:32:27.071Z,13.10
2017-12-30T04:34:54.673Z,12.00
2017-12-30T04:37:22.308Z,14.00
2017-12-30T04:39:49.899Z,12.90
2017-12-30T04:42:17.515Z,14.27
2017-12-30T04:44:45.086Z,14.47
2017-12-30T04:47:12.660Z,15.57
2017-12-30T04:49:40.277Z,14.30
2017-12-30T04:52:07.864Z,14.10
2017-12-30T04:54:35.443Z,14.07
2017-12-30T04:57:03.051Z,14.20
2017-12-30T04:59:30.623Z,13.93
2017-12-30T05:01:58.210Z,13.23
2017-12-30T05:04:25.841Z,13.90
2017-12-30T05:06:53.413Z,13.83
2017-12-30T05:09:21.008Z,13.60
2017-12-30T05:11:48.615Z,14.00
2017-12-30T05:14:16.182Z,14.40
2017-12-30T05:16:43.768Z,14.30
2017-12-30T05:19:11.388Z,13.23
2017-12-30T05:21:38.946Z,13.53
2017-12-30T05:24:06.522Z,13.80
2017-12-30T05:26:34.127Z,15.23
2017-12-30T05:29:01.704Z,13.83
2017-12-30T05:31:29.258Z,14.50
2017-12-30T05:33:57.192Z,18.40
2017-12-30T05:36:24.773Z,17.17
2017-12-30T05:38:52.339Z,15.27
2017-12-30T05:41:19.991Z,16.70
2017-12-30T05:43:47.577Z,16.90
2017-12-30T05:46:15.160Z,16.70
2017-12-30T05:48:42.777Z,18.37
2017-12-30T05:51:10.358Z,15.93
2017-12-30T05:53:37.921Z,18.73
2017-12-30T05:56:05.532Z,31.93
2017-12-30T05:58:33.090Z,18.67
2017-12-30T06:01:00.650Z,20.70
2017-12-30T06:03:28.254Z,18.90
2017-12-30T06:05:55.820Z,17.23
2017-12-30T06:08:23.396Z,17.63
2017-12-30T06:10:51.020Z,17.60
2017-12-30T06:13:18.587Z,16.47
2017-12-30T06:15:46.164Z,15.77
2017-12-30T06:18:13.776Z,15.70
2017-12-30T06:20:41.360Z,16.37
2017-12-30T06:23:08.927Z,15.77
2017-12-30T06:25:36.540Z,15.93
2017-12-30T06:28:04.149Z,17.00
2017-12-30T06:30:32.130Z,18.80
2017-12-30T06:32:59.881Z,20.50
2017-12-30T06:35:27.458Z,20.83
2017-12-30T06:37:55.047Z,21.80
2017-12-30T06:40:22.667Z,19.60
2017-12-30T06:42:50.286Z,18.20
2017-12-30T06:45:17.930Z,17.73
2017-12-30T06:47:45.547Z,17.83
2017-12-30T06:50:13.161Z,19.17
2017-12-30T06:52:40.778Z,19.03
2017-12-30T06:55:08.365Z,18.03
2017-12-30T06:57:35.987Z,16.70
2017-12-30T07:00:03.791Z,16.50
2017-12-30T07:02:31.357Z,16.40
2017-12-30T07:04:59.008Z,20.40
2017-12-30T07:07:26.632Z,18.77
2017-12-30T07:09:54.224Z,17.80
2017-12-30T07:12:21.836Z,16.43
2017-12-30T07:14:49.418Z,15.83
2017-12-30T07:17:16.983Z,16.10
2017-12-30T07:19:44.585Z,17.47
2017-12-30T07:22:12.142Z,16.70
2017-12-30T07:24:39.722Z,18.00
2017-12-30T07:27:07.318Z,15.73
2017-12-30T07:29:34.898Z,16.03
2017-12-30T07:32:02.488Z,16.70
2017-12-30T07:34:30.216Z,16.67
2017-12-30T07:36:57.862Z,18.43
2017-12-30T07:39:25.534Z,15.17
2017-12-30T07:41:53.219Z,16.17
2017-12-30T07:44:20.956Z,14.70
2017-12-30T07:46:48.560Z,14.63
2017-12-30T07:49:16.261Z,14.20
2017-12-30T07:51:43.841Z,17.00
2017-12-30T07:54:11.423Z,15.60
2017-12-30T07:56:39.023Z,15.70
2017-12-30T07:59:06.761Z,17.50
2017-12-30T08:01:34.377Z,16.10
2017-12-30T08:04:02.210Z,16.00
2017-12-30T08:06:29.988Z,16.30
2017-12-30T08:08:57.681Z,14.70
2017-12-30T08:11:25.284Z,14.50
2017-12-30T08:13:52.851Z,19.80
2017-12-30T08:16:20.418Z,21.50
2017-12-30T08:18:48.055Z,15.17
2017-12-30T08:21:15.629Z,15.67
2017-12-30T08:23:43.204Z,17.93
2017-12-30T08:26:10.806Z,17.57
2017-12-30T08:28:38.365Z,20.00
2017-12-30T08:31:06.193Z,18.60
2017-12-30T08:33:33.849Z,12.20
2017-12-30T08:36:01.465Z,15.07
2017-12-30T08:38:29.073Z,11.03
2017-12-30T08:40:56.687Z,9.00
2017-12-30T08:43:24.271Z,10.27
2017-12-30T08:45:51.844Z,9.80
2017-12-30T08:48:19.474Z,10.30
2017-12-30T08:50:47.241Z,13.60
2017-12-30T08:53:14.803Z,10.33
2017-12-30T08:55:42.430Z,9.70
2017-12-30T08:58:10.039Z,10.73
2017-12-30T09:00:37.592Z,12.10
2017-12-30T09:03:05.263Z,17.90
2017-12-30T09:05:32.830Z,12.90
2017-12-30T09:08:00.400Z,12.90
2017-12-30T09:10:27.984Z,13.67
2017-12-30T09:12:55.549Z,10.63
2017-12-30T09:15:23.124Z,12.60
2017-12-30T09:17:50.723Z,10.67
2017-12-30T09:20:18.282Z,10.20
2017-12-30T09:22:45.839Z,9.07
2017-12-30T09:25:13.494Z,12.47
2017-12-30T09:27:41.078Z,11.30
2017-12-30T09:30:08.646Z,10.97
2017-12-30T09:32:36.257Z,25.33
2017-12-30T09:35:03.832Z,11.93
2017-12-30T09:37:31.422Z,10.13
2017-12-30T09:39:59.023Z,11.87
2017-12-30T09:42:26.610Z,16.83
2017-12-30T09:44:54.266Z,10.90
2017-12-30T09:47:21.873Z,13.17
2017-12-30T09:49:49.423Z,10.43
2017-12-30T09:52:17.037Z,14.90
2017-12-30T09:54:44.637Z,10.30
2017-12-30T09:57:12.214Z,14.07
2017-12-30T09:59:39.788Z,11.27
2017-12-30T10:02:07.401Z,15.10
2017-12-30T10:04:35.020Z,16.13
2017-12-30T10:07:02.600Z,12.97
2017-12-30T10:09:30.214Z,11.33
2017-12-30T10:11:57.785Z,14.80
2017-12-30T10:14:25.363Z,18.70
2017-12-30T10:16:52.967Z,14.37
2017-12-30T10:19:20.631Z,11.97
2017-12-30T10:21:48.191Z,12.10
2017-12-30T10:24:15.783Z,10.60
2017-12-30T10:26:43.357Z,8.50
2017-12-30T10:29:10.919Z,12.50
2017-12-30T10:31:38.561Z,12.07
2017-12-30T10:34:06.185Z,18.60
2017-12-30T10:36:33.755Z,11.70
2017-12-30T10:39:01.353Z,14.70
2017-12-30T10:41:28.920Z,26.30
2017-12-30T10:43:56.484Z,15.27
2017-12-30T10:46:24.297Z,9.37
2017-12-30T10:48:51.862Z,15.13
2017-12-30T10:51:19.439Z,10.67
2017-12-30T10:53:47.093Z,9.90
2017-12-30T10:56:14.659Z,19.13
2017-12-30T10:58:42.249Z,33.60
2017-12-30T11:01:09.961Z,25.70
2017-12-30T11:03:37.722Z,13.10
2017-12-30T11:06:05.300Z,32.30
2017-12-30T11:08:32.926Z,23.37
2017-12-30T11:11:00.479Z,31.27
2017-12-30T11:13:28.180Z,21.00
2017-12-30T11:15:55.782Z,22.73
2017-12-30T11:18:23.478Z,26.47
2017-12-30T11:20:51.031Z,20.50
2017-12-30T11:23:18.623Z,15.70
2017-12-30T11:25:46.177Z,10.77
2017-12-30T11:28:13.938Z,10.43
2017-12-30T11:30:41.525Z,10.00
2017-12-30T11:33:09.079Z,11.03
2017-12-30T11:35:36.644Z,8.90
2017-12-30T11:38:04.494Z,10.40
2017-12-30T11:40:32.262Z,9.20
2017-12-30T11:42:59.896Z,9.70
2017-12-30T11:45:27.483Z,9.67
2017-12-30T11:47:55.046Z,8.70
2017-12-30T11:50:22.616Z,11.80
2017-12-30T11:52:50.222Z,10.03
2017-12-30T11:55:17.794Z,17.90
2017-12-30T11:57:45.376Z,20.53
2017-12-30T12:00:12.983Z,14.40
2017-12-30T12:02:40.868Z,12.00
2017-12-30T12:05:08.425Z,13.53
2017-12-30T12:07:36.022Z,11.68
2017-12-30T12:10:03.619Z,12.67
2017-12-30T12:12:31.196Z,11.07
2017-12-30T12:14:58.815Z,12.20
2017-12-30T12:17:26.404Z,11.20
2017-12-30T12:19:53.971Z,12.33
2017-12-30T12:22:21.603Z,16.60
2017-12-30T12:24:49.198Z,10.13
2017-12-30T12:27:16.766Z,10.00
2017-12-30T12:29:44.367Z,12.03
2017-12-30T12:32:11.937Z,15.73
2017-12-30T12:34:39.514Z,14.77
2017-12-30T12:37:07.153Z,10.67
2017-12-30T12:39:34.718Z,11.30
2017-12-30T12:42:02.260Z,7.87
2017-12-30T12:44:30.028Z,8.07
2017-12-30T12:46:57.577Z,8.53
2017-12-30T12:49:25.122Z,8.90
2017-12-30T12:51:52.730Z,7.33
2017-12-30T12:54:20.282Z,7.87
2017-12-30T12:56:47.839Z,7.57
2017-12-30T12:59:15.505Z,8.93
2017-12-30T13:01:43.055Z,9.23
2017-12-30T13:04:10.590Z,8.10
2017-12-30T13:06:38.180Z,8.13
2017-12-30T13:09:05.752Z,8.47
2017-12-30T13:11:33.315Z,8.50
2017-12-30T13:14:00.896Z,8.20
2017-12-30T13:16:28.453Z,8.60
2017-12-30T13:18:56.058Z,7.67
2017-12-30T13:21:23.642Z,8.63
2017-12-30T13:23:51.211Z,8.33
2017-12-30T13:26:18.761Z,10.80
2017-12-30T13:28:46.396Z,8.93
2017-12-30T13:31:13.941Z,9.63
2017-12-30T13:33:41.498Z,8.70
2017-12-30T13:36:09.077Z,9.80
2017-12-30T13:38:36.641Z,10.23
2017-12-30T13:41:04.224Z,10.03
2017-12-30T13:43:31.813Z,10.33
2017-12-30T13:45:59.368Z,9.17
2017-12-30T13:48:26.965Z,15.03
2017-12-30T13:50:54.548Z,15.00
2017-12-30T13:53:22.100Z,11.20
2017-12-30T13:55:49.696Z,12.03
2017-12-30T13:58:17.266Z,11.53
2017-12-30T14:00:44.840Z,10.97
2017-12-30T14:03:12.443Z,11.13
2017-12-30T14:05:40.005Z,8.33
2017-12-30T14:08:08.440Z,10.33
2017-12-30T14:10:36.014Z,41.10
2017-12-30T14:13:03.584Z,18.90
2017-12-30T14:15:31.152Z,10.50
2017-12-30T14:17:58.754Z,13.00
2017-12-30T14:20:26.330Z,10.50
2017-12-30T14:22:53.893Z,10.20
2017-12-30T14:25:21.470Z,11.60
2017-12-30T14:27:49.062Z,12.90
2017-12-30T14:30:16.614Z,12.67
2017-12-30T14:32:44.243Z,11.90
2017-12-30T14:35:11.812Z,14.00
2017-12-30T14:37:39.385Z,10.60
2017-12-30T14:40:06.992Z,10.33
2017-12-30T14:42:34.552Z,12.20
2017-12-30T14:45:02.188Z,10.70
2017-12-30T14:47:29.795Z,12.50
2017-12-30T14:49:57.439Z,11.13
2017-12-30T14:52:25.006Z,12.03
2017-12-30T14:54:52.621Z,12.17
2017-12-30T14:57:20.252Z,12.90
2017-12-30T14:59:47.822Z,13.33
2017-12-30T15:02:15.506Z,11.27
2017-12-30T15:04:43.055Z,12.60
2017-12-30T15:07:10.617Z,20.30
2017-12-30T15:09:38.217Z,15.70
2017-12-30T15:12:05.784Z,32.07
2017-12-30T15:14:33.383Z,19.37
2017-12-30T15:17:01.073Z,17.00
2017-12-30T15:19:28.642Z,15.87
2017-12-30T15:21:56.216Z,16.47
2017-12-30T15:24:23.803Z,16.50
2017-12-30T15:26:51.356Z,16.60
2017-12-30T15:29:19.106Z,16.23
2017-12-30T15:31:46.772Z,17.00
2017-12-30T15:34:14.382Z,14.93
2017-12-30T15:36:42.658Z,24.30
2017-12-30T15:39:10.270Z,31.10
2017-12-30T15:41:38.038Z,19.50
2017-12-30T15:44:05.802Z,39.50
2017-12-30T15:46:33.435Z,22.17
2017-12-30T15:49:01.025Z,14.53
2017-12-30T15:51:29.224Z,14.83
2017-12-30T15:53:56.834Z,13.10
2017-12-30T15:56:24.415Z,14.23
2017-12-30T15:58:52.000Z,15.53
2017-12-30T16:01:19.583Z,13.30
2017-12-30T16:03:47.205Z,14.17
2017-12-30T16:06:14.769Z,14.27
2017-12-30T16:08:42.374Z,15.70
2017-12-30T16:11:09.930Z,15.20
2017-12-30T16:13:37.483Z,17.57
2017-12-30T16:16:05.104Z,20.23
2017-12-30T16:18:32.700Z,20.50
2017-12-30T16:21:00.330Z,19.00
2017-12-30T16:23:27.930Z,16.77
2017-12-30T16:25:55.483Z,17.70
2017-12-30T16:28:23.021Z,15.63
2017-12-30T16:30:50.623Z,16.47
2017-12-30T16:33:18.304Z,18.10
2017-12-30T16:35:45.851Z,20.33
2017-12-30T16:38:13.432Z,19.10
2017-12-30T16:40:40.996Z,17.37
2017-12-30T16:43:08.557Z,16.83
2017-12-30T16:45:36.138Z,17.80
2017-12-30T16:48:03.683Z,15.17
2017-12-30T16:50:31.258Z,19.27
2017-12-30T16:52:58.862Z,15.47
2017-12-30T16:55:26.462Z,15.50
2017-12-30T16:57:54.685Z,19.83
2017-12-30T17:00:22.307Z,18.03
2017-12-30T17:02:49.905Z,17.07
2017-12-30T17:05:17.481Z,14.90
2017-12-30T17:07:45.087Z,15.00
2017-12-30T17:10:12.655Z,15.80
2017-12-30T17:12:40.214Z,18.90
2017-12-30T17:15:07.812Z,15.60
2017-12-30T17:17:35.377Z,14.37
2017-12-30T17:20:02.976Z,18.37
2017-12-30T17:22:30.568Z,23.70
2017-12-30T17:24:58.153Z,19.77
2017-12-30T17:27:25.777Z,19.37
2017-12-30T17:29:53.393Z,17.37
2017-12-30T17:32:20.956Z,19.63
2017-12-30T17:34:48.503Z,18.77
2017-12-30T17:37:16.113Z,18.93
2017-12-30T17:39:43.696Z,20.47
2017-12-30T17:42:11.272Z,21.00
2017-12-30T17:44:38.876Z,22.00
2017-12-30T17:47:06.431Z,23.30
2017-12-30T17:49:34.010Z,21.73
2017-12-30T17:52:01.594Z,18.73
2017-12-30T17:54:29.165Z,18.87
2017-12-30T17:56:56.739Z,20.27
2017-12-30T17:59:24.407Z,19.70
2017-12-30T18:01:51.967Z,20.03
2017-12-30T18:04:19.528Z,19.20
2017-12-30T18:06:47.124Z,25.20
2017-12-30T18:09:14.681Z,24.60
2017-12-30T18:11:42.243Z,24.23
2017-12-30T18:14:09.859Z,20.17
2017-12-30T18:16:37.483Z,22.20
2017-12-30T18:19:05.044Z,21.30
2017-12-30T18:21:32.636Z,19.30
2017-12-30T18:24:00.197Z,20.02
2017-12-30T18:26:27.746Z,19.63
2017-12-30T18:28:55.406Z,17.27
2017-12-30T18:31:22.955Z,18.30
2017-12-30T18:33:50.527Z,17.00
2017-12-30T18:36:18.120Z,20.77
2017-12-30T18:38:45.670Z,17.97
2017-12-30T18:41:13.250Z,16.97
2017-12-30T18:43:40.863Z,19.30
2017-12-30T18:46:08.470Z,17.13
2017-12-30T18:48:36.026Z,17.60
2017-12-30T18:51:03.645Z,17.53
2017-12-30T18:53:31.222Z,17.97
2017-12-30T18:55:58.795Z,17.07
2017-12-30T18:58:26.404Z,18.37
2017-12-30T19:00:53.954Z,18.43
2017-12-30T19:03:22.443Z,18.23
2017-12-30T19:05:50.025Z,19.83
2017-12-30T19:08:17.682Z,20.37
2017-12-30T19:10:45.338Z,20.97
2017-12-30T19:13:13.000Z,19.67
2017-12-30T19:15:40.572Z,17.70
2017-12-30T19:18:08.130Z,17.63
2017-12-30T19:20:35.740Z,19.40
2017-12-30T19:23:03.307Z,17.43
2017-12-30T19:25:30.871Z,18.53
2017-12-30T19:27:58.477Z,18.23
2017-12-30T19:30:26.039Z,21.47
2017-12-30T19:32:53.601Z,25.63
2017-12-30T19:35:21.233Z,20.30
2017-12-30T19:37:48.808Z,25.33
2017-12-30T19:40:16.372Z,22.30
2017-12-30T19:42:43.971Z,21.83
2017-12-30T19:45:11.529Z,24.30
2017-12-30T19:47:39.106Z,27.90
2017-12-30T19:50:06.728Z,27.47
2017-12-30T19:52:34.310Z,24.67
2017-12-30T19:55:01.914Z,25.30
2017-12-30T19:57:29.515Z,26.60
2017-12-30T19:59:57.082Z,27.80
2017-12-30T20:02:24.634Z,25.83
2017-12-30T20:04:52.227Z,27.60
2017-12-30T20:07:19.794Z,27.60
2017-12-30T20:09:47.386Z,31.00
2017-12-30T20:12:14.990Z,30.63
2017-12-30T20:14:42.715Z,38.40
2017-12-30T20:17:10.341Z,40.90
2017-12-30T20:19:37.931Z,37.80
2017-12-30T20:22:05.498Z,42.27
2017-12-30T20:24:33.091Z,51.40
2017-12-30T20:27:00.695Z,43.23
2017-12-30T20:29:28.299Z,43.13
2017-12-30T20:31:55.849Z,41.50
2017-12-30T20:34:23.438Z,42.13
2017-12-30T20:36:50.985Z,40.87
2017-12-30T20:39:18.543Z,43.73
2017-12-30T20:41:46.190Z,44.53
2017-12-30T20:44:13.780Z,41.87
2017-12-30T20:46:41.518Z,36.63
2017-12-30T20:49:09.123Z,31.63
2017-12-30T20:51:36.706Z,31.70
2017-12-30T20:54:04.302Z,35.90
2017-12-30T20:56:31.906Z,35.73
2017-12-30T20:58:59.525Z,34.63
2017-12-30T21:01:27.148Z,34.43
2017-12-30T21:03:54.753Z,30.27
2017-12-30T21:06:22.342Z,31.97
2017-12-30T21:08:49.906Z,28.10
2017-12-30T21:11:17.495Z,28.30
2017-12-30T21:13:45.057Z,28.07
2017-12-30T21:16:12.624Z,29.80
2017-12-30T21:18:40.236Z,32.80
2017-12-30T21:21:07.824Z,28.70
2017-12-30T21:23:35.387Z,26.67
2017-12-30T21:26:03.059Z,24.53
2017-12-30T21:28:30.621Z,23.77
2017-12-30T21:30:58.195Z,22.67
2017-12-30T21:33:25.783Z,23.33
2017-12-30T21:35:53.339Z,26.57
2017-12-30T21:38:20.974Z,31.17
2017-12-30T21:40:48.567Z,28.20
2017-12-30T21:43:16.137Z,27.10
2017-12-30T21:45:43.703Z,29.43
2017-12-30T21:48:11.299Z,31.57
2017-12-30T21:50:38.871Z,34.03
2017-12-30T21:53:06.435Z,38.00
2017-12-30T21:55:34.048Z,32.70
2017-12-30T21:58:01.609Z,36.27
2017-12-30T22:00:29.193Z,28.97
2017-12-30T22:02:56.818Z,27.30
2017-12-30T22:05:24.392Z,31.90
2017-12-30T22:07:51.965Z,30.50
2017-12-30T22:10:19.564Z,32.90
2017-12-30T22:12:47.133Z,29.60
2017-12-30T22:15:14.697Z,29.30
2017-12-30T22:17:42.370Z,22.30
2017-12-30T22:20:09.948Z,28.20
2017-12-30T22:22:37.509Z,27.07
2017-12-30T22:25:05.111Z,27.43
2017-12-30T22:27:32.691Z,25.87
2017-12-30T22:30:00.314Z,26.77
2017-12-30T22:32:27.911Z,22.20
2017-12-30T22:34:55.472Z,22.27
2017-12-30T22:37:23.040Z,22.63
2017-12-30T22:39:50.692Z,21.87
2017-12-30T22:42:18.270Z,23.47
2017-12-30T22:44:45.848Z,21.80
2017-12-30T22:47:13.448Z,19.83
2017-12-30T22:49:41.051Z,22.00
2017-12-30T22:52:08.652Z,19.70
2017-12-30T22:54:36.259Z,19.67
2017-12-30T22:57:03.811Z,21.33
2017-12-30T22:59:31.363Z,20.53
2017-12-30T23:01:59.032Z,22.17
2017-12-30T23:04:26.606Z,23.20
2017-12-30T23:06:54.207Z,19.47
2017-12-30T23:09:21.851Z,19.50
2017-12-30T23:11:49.441Z,21.47
2017-12-30T23:14:17.039Z,19.93
2017-12-30T23:16:44.649Z,23.13
2017-12-30T23:19:12.211Z,19.80
2017-12-30T23:21:39.823Z,21.10
2017-12-30T23:24:07.453Z,20.30
2017-12-30T23:26:35.041Z,19.83
2017-12-30T23:29:02.621Z,22.13
2017-12-30T23:31:30.222Z,21.10
2017-12-30T23:33:57.788Z,19.47
2017-12-30T23:36:25.494Z,18.80
2017-12-30T23:38:53.112Z,18.53
2017-12-30T23:41:20.707Z,18.17
2017-12-30T23:43:48.265Z,18.70
2017-12-30T23:46:15.861Z,19.63
2017-12-30T23:48:43.419Z,18.53
2017-12-30T23:51:10.983Z,18.03
2017-12-30T23:53:38.581Z,17.73
2017-12-30T23:56:06.179Z,19.30
2017-12-30T23:58:33.751Z,21.53
